Perronville, MI (49873)

4:21 PM CDT on April 25, 2017 (GMT -0500)
MLBRM4 | | Change Station

Elev 987 ft 45.89 °N, 87.49 °W | Updated 2 hours ago

Clear
Clear
67.0 °F
Feels Like 67.0 °F
N
7.0
Wind Variable Wind from SSE
Gusts 14.0 mph

Today
High -- | Low -- °F
--% Chance of Precip.
Yesterday
High -- | Low -- °F
Precip. -- in
Pressure 29.75 in
Visibility 10.0 miles
Clouds Clear
Dew Point 48.0 °F
Humidity 50%
Rainfall in
Snow Depth Not available.
5:46 AM 7:50 PM
Waning Crescent, 1% visible
METAR KESC 252056Z AUTO 11014KT 10SM CLR 14/08 A2967 RMK AO2 SLP074 T01440083 56013
Pressure 29.75 in
Visibility 10.0 miles
Clouds Clear
Dew Point 48.0 °F
Humidity 50%
Rainfall in
Snow Depth Not available.
5:46 AM 7:50 PM
Waning Crescent, 1% visible
METAR KESC 252056Z AUTO 11014KT 10SM CLR 14/08 A2967 RMK AO2 SLP074 T01440083 56013

Get Severe Weather Alerts

Thanks for signing up!

Be on the lookout for a verification email in your inbox.

You'll start receiving the daily forecast at 8 AM.

×

10-Day Weather Forecast

Almanac

Astronomy

Apr. 25, 2017 Rise Set
Actual Time
Civil Twilight
Nautical Twilight
Astronomical Twilight
Moon
Length of Visible Light
Length of Day
Tomorrow will be .
, % of the Moon is Illuminated

Today's Extremes

State Highs State Lows

Community

WunderPhotos

WunderBlog® & News

Nearby

Air Quality

  Air Quality AQ Index Pollutant
Not available.

Snow Depth

Station Depth Elevation

Earthquake Activity

City Distance Mag. Time & Date
Minimum magnitude displayed is 2.5.

Coastal Water Temperatures

Place Temperature

Stations

Nearby Weather Stations

Station Location Temp. Windchill Dew Point Humidity Wind Precip. Elev Updated Type
                   

Watches & Warnings

There are currently no watches in effect.